createdAt,value
2022-12-11T00:02:22.002Z,0.60
2022-12-11T00:06:24.164Z,0.50
2022-12-11T00:10:26.168Z,0.60
2022-12-11T00:14:29.156Z,0.70
2022-12-11T00:18:38.498Z,0.60
2022-12-11T00:22:40.406Z,0.50
2022-12-11T00:26:42.266Z,0.50
2022-12-11T00:30:44.104Z,0.70
2022-12-11T00:34:45.897Z,0.80
2022-12-11T00:38:48.894Z,0.80
2022-12-11T00:42:53.799Z,0.80
2022-12-11T00:46:55.699Z,0.70
2022-12-11T00:50:57.675Z,0.80
2022-12-11T00:54:59.498Z,0.80
2022-12-11T00:59:01.490Z,0.80
2022-12-11T01:03:03.553Z,0.60
2022-12-11T01:07:05.531Z,0.60
2022-12-11T01:11:10.580Z,0.40
2022-12-11T01:15:12.622Z,0.30
2022-12-11T01:19:14.915Z,0.20
2022-12-11T01:23:16.815Z,0.20
2022-12-11T01:27:18.606Z,0.30
2022-12-11T01:31:22.225Z,0.30
2022-12-11T01:35:24.192Z,0.30
2022-12-11T01:39:26.093Z,0.40
2022-12-11T01:43:27.958Z,0.50
2022-12-11T01:47:29.864Z,0.50
2022-12-11T01:51:33.459Z,0.40
2022-12-11T01:55:35.366Z,0.30
2022-12-11T01:59:40.042Z,0.30
2022-12-11T02:03:42.620Z,0.40
2022-12-11T02:07:51.109Z,0.40
2022-12-11T02:12:12.034Z,0.30
2022-12-11T02:16:37.913Z,0.40
2022-12-11T02:20:52.043Z,0.50
2022-12-11T02:25:07.722Z,0.40
2022-12-11T02:29:18.719Z,0.40
2022-12-11T02:33:34.322Z,0.50
2022-12-11T02:37:36.506Z,0.60
2022-12-11T02:41:38.882Z,0.30
2022-12-11T02:45:41.256Z,0.20
2022-12-11T02:49:44.595Z,0.30
2022-12-11T02:53:46.497Z,0.40
2022-12-11T02:58:02.467Z,0.20
2022-12-11T03:02:19.515Z,0.20
2022-12-11T03:06:30.428Z,0.00
2022-12-11T03:10:32.229Z,0.10
2022-12-11T03:14:40.413Z,0.30
2022-12-11T03:19:05.434Z,0.40
2022-12-11T03:23:16.589Z,0.40
2022-12-11T03:27:30.330Z,0.30
2022-12-11T03:31:39.035Z,0.30
2022-12-11T03:35:45.826Z,0.10
2022-12-11T03:39:54.859Z,0.00
2022-12-11T03:43:58.518Z,0.00
2022-12-11T03:48:00.568Z,0.00
2022-12-11T03:52:02.733Z,0.00
2022-12-11T03:56:05.723Z,0.10
2022-12-11T04:00:10.808Z,0.10
2022-12-11T04:04:13.082Z,0.10
2022-12-11T04:08:15.610Z,0.20
2022-12-11T04:12:17.435Z,0.20
2022-12-11T04:16:19.312Z,0.20
2022-12-11T04:20:39.943Z,0.20
2022-12-11T04:24:41.837Z,0.20
2022-12-11T04:28:44.367Z,0.30
2022-12-11T04:32:46.256Z,0.30
2022-12-11T04:36:48.170Z,0.30
2022-12-11T04:40:50.008Z,0.30
2022-12-11T04:44:51.808Z,0.30
2022-12-11T04:48:57.252Z,0.30
2022-12-11T04:52:59.663Z,0.20
2022-12-11T04:57:01.552Z,0.20
2022-12-11T05:01:18.006Z,0.10
2022-12-11T05:05:19.830Z,0.20
2022-12-11T05:09:21.709Z,0.10
2022-12-11T05:13:23.519Z,0.30
2022-12-11T05:17:25.432Z,0.30
2022-12-11T05:21:33.235Z,0.20
2022-12-11T05:25:36.714Z,0.00
2022-12-11T05:29:38.536Z,-0.10
2022-12-11T05:33:40.407Z,-0.10
2022-12-11T05:37:42.164Z,-0.30
2022-12-11T05:41:43.931Z,-0.30
2022-12-11T05:45:45.754Z,-0.30
2022-12-11T05:49:47.923Z,-0.30
2022-12-11T05:53:51.095Z,-0.40
2022-12-11T05:57:52.965Z,-0.40
2022-12-11T06:01:54.887Z,-0.50
2022-12-11T06:05:56.785Z,-0.50
2022-12-11T06:09:58.533Z,-0.50
2022-12-11T06:14:02.159Z,-0.60
2022-12-11T06:18:04.133Z,-0.60
2022-12-11T06:22:05.940Z,-0.60
2022-12-11T06:26:17.397Z,-0.60
2022-12-11T06:30:19.393Z,-0.60
2022-12-11T06:34:23.534Z,-0.60
2022-12-11T06:38:25.411Z,-0.70
2022-12-11T06:42:27.226Z,-0.70
2022-12-11T06:46:29.393Z,-0.70
2022-12-11T06:50:31.251Z,-0.70
2022-12-11T06:54:33.221Z,-0.70
2022-12-11T06:58:35.716Z,-0.80
2022-12-11T07:02:37.660Z,-0.80
2022-12-11T07:06:39.902Z,-0.70
2022-12-11T07:10:44.337Z,-0.60
2022-12-11T07:14:46.264Z,-0.70
2022-12-11T07:18:50.010Z,-0.60
2022-12-11T07:22:51.900Z,-0.60
2022-12-11T07:26:53.848Z,-0.60
2022-12-11T07:30:55.753Z,-0.50
2022-12-11T07:34:58.068Z,-0.50
2022-12-11T07:39:02.760Z,-0.50
2022-12-11T07:43:04.760Z,-0.70
2022-12-11T07:47:06.895Z,-0.70
2022-12-11T07:51:12.562Z,-0.70
2022-12-11T07:55:17.724Z,-0.80
2022-12-11T07:59:19.811Z,-0.80
2022-12-11T08:03:22.088Z,-0.70
2022-12-11T08:07:26.825Z,-0.80
2022-12-11T08:11:30.319Z,-0.70
2022-12-11T08:15:37.159Z,-0.70
2022-12-11T08:19:39.680Z,-0.70
2022-12-11T08:23:46.750Z,-0.60
2022-12-11T08:27:59.339Z,-0.70
2022-12-11T08:32:08.970Z,-0.70
2022-12-11T08:36:21.572Z,-0.70
2022-12-11T08:40:23.778Z,-0.60
2022-12-11T08:44:26.952Z,-0.70
2022-12-11T08:48:38.922Z,-0.70
2022-12-11T08:52:44.324Z,-0.70
2022-12-11T08:56:46.722Z,-0.60
2022-12-11T09:00:59.823Z,-0.50
2022-12-11T09:05:01.867Z,-0.50
2022-12-11T09:09:04.004Z,-0.40
2022-12-11T09:13:05.873Z,-0.40
2022-12-11T09:17:08.864Z,-0.40
2022-12-11T09:21:17.089Z,-0.40
2022-12-11T09:25:18.965Z,-0.40
2022-12-11T09:29:21.059Z,-0.30
2022-12-11T09:33:23.849Z,-0.40
2022-12-11T09:37:26.432Z,-0.30
2022-12-11T09:42:00.671Z,-0.30
2022-12-11T09:46:05.733Z,-0.20
2022-12-11T09:50:11.466Z,-0.30
2022-12-11T09:54:17.314Z,-0.30
2022-12-11T09:58:38.596Z,-0.30
2022-12-11T10:03:07.794Z,-0.10
2022-12-11T10:07:30.600Z,0.10
2022-12-11T10:11:35.195Z,-0.10
2022-12-11T10:15:51.257Z,0.00
2022-12-11T10:19:55.458Z,0.00
2022-12-11T10:24:00.614Z,0.10
2022-12-11T10:28:14.314Z,0.30
2022-12-11T10:32:24.770Z,0.30
2022-12-11T10:36:39.374Z,0.30
2022-12-11T10:41:03.331Z,0.30
2022-12-11T10:45:05.939Z,0.50
2022-12-11T10:49:26.844Z,0.50
2022-12-11T10:53:29.451Z,0.70
2022-12-11T10:57:40.311Z,0.80
2022-12-11T11:01:42.290Z,0.90
2022-12-11T11:05:49.204Z,0.80
2022-12-11T11:10:09.848Z,0.90
2022-12-11T11:14:15.562Z,0.90
2022-12-11T11:18:25.466Z,0.80
2022-12-11T11:22:27.759Z,0.90
2022-12-11T11:26:56.543Z,1.00
2022-12-11T11:31:05.938Z,1.00
2022-12-11T11:35:11.676Z,0.90
2022-12-11T11:39:37.633Z,0.90
2022-12-11T11:43:54.697Z,0.80
2022-12-11T11:48:28.672Z,0.60
2022-12-11T11:52:49.101Z,0.60
2022-12-11T11:56:52.057Z,0.60
2022-12-11T12:00:54.867Z,0.60
2022-12-11T12:04:56.840Z,0.80
2022-12-11T12:09:19.310Z,1.10
2022-12-11T12:14:29.152Z,1.40
2022-12-11T12:19:03.811Z,1.40
2022-12-11T12:23:45.218Z,1.20
2022-12-11T12:28:05.938Z,1.20
2022-12-11T12:32:36.928Z,1.10
2022-12-11T12:36:46.797Z,0.80
2022-12-11T12:41:19.521Z,0.90
2022-12-11T12:46:02.582Z,0.90
2022-12-11T12:50:05.068Z,0.90
2022-12-11T12:54:12.321Z,0.80
2022-12-11T12:58:42.335Z,0.70
2022-12-11T13:02:50.638Z,0.60
2022-12-11T13:06:52.475Z,0.50
2022-12-11T13:11:02.375Z,0.50
2022-12-11T13:15:04.818Z,0.50
2022-12-11T13:19:30.026Z,0.30
2022-12-11T13:23:37.289Z,0.20
2022-12-11T13:27:43.705Z,0.10
2022-12-11T13:31:45.831Z,0.10
2022-12-11T13:35:47.972Z,0.10
2022-12-11T13:39:50.165Z,0.10
2022-12-11T13:44:35.916Z,0.20
2022-12-11T13:48:48.455Z,0.20
2022-12-11T13:52:58.508Z,0.20
2022-12-11T13:57:15.236Z,0.40
2022-12-11T14:01:32.545Z,0.20
2022-12-11T14:05:34.594Z,0.20
2022-12-11T14:09:40.342Z,0.10
2022-12-11T14:13:42.271Z,0.10
2022-12-11T14:17:51.473Z,0.00
2022-12-11T14:22:06.880Z,0.00
2022-12-11T14:26:18.158Z,-0.10
2022-12-11T14:30:32.541Z,-0.10
2022-12-11T14:34:38.541Z,-0.20
2022-12-11T14:38:58.164Z,-0.20
2022-12-11T14:43:02.224Z,-0.20
2022-12-11T14:47:14.088Z,-0.20
2022-12-11T14:51:20.365Z,-0.30
2022-12-11T14:55:27.717Z,-0.30
2022-12-11T14:59:32.097Z,-0.40
2022-12-11T15:03:43.263Z,-0.40
2022-12-11T15:08:27.028Z,-0.50
2022-12-11T15:12:29.009Z,-0.60
2022-12-11T15:16:33.557Z,-0.60
2022-12-11T15:20:35.549Z,-0.60
2022-12-11T15:24:42.743Z,-0.60
2022-12-11T15:28:44.631Z,-0.60
2022-12-11T15:32:46.974Z,-0.60
2022-12-11T15:36:48.811Z,-0.50
2022-12-11T15:40:50.793Z,-0.60
2022-12-11T15:44:53.806Z,-0.60
2022-12-11T15:48:56.783Z,-0.70
2022-12-11T15:52:58.657Z,-0.70
2022-12-11T15:57:01.855Z,-0.70
2022-12-11T16:01:06.443Z,-0.70
2022-12-11T16:05:08.909Z,-0.70
2022-12-11T16:09:10.971Z,-0.70
2022-12-11T16:13:13.194Z,-0.80
2022-12-11T16:17:15.326Z,-0.80
2022-12-11T16:21:21.393Z,-0.80
2022-12-11T16:25:25.059Z,-0.80
2022-12-11T16:29:27.070Z,-0.80
2022-12-11T16:33:29.000Z,-0.80
2022-12-11T16:37:30.874Z,-0.70
2022-12-11T16:41:32.739Z,-0.70
2022-12-11T16:45:34.683Z,-0.70
2022-12-11T16:49:36.608Z,-0.60
2022-12-11T16:53:38.755Z,-0.60
2022-12-11T16:57:40.812Z,-0.80
2022-12-11T17:01:42.705Z,-0.80
2022-12-11T17:05:45.088Z,-0.70
2022-12-11T17:09:47.079Z,-0.80
2022-12-11T17:13:53.988Z,-0.80
2022-12-11T17:17:55.767Z,-0.80
2022-12-11T17:21:58.962Z,-0.80
2022-12-11T17:26:02.532Z,-0.80
2022-12-11T17:30:05.275Z,-0.80
2022-12-11T17:34:07.162Z,-0.80
2022-12-11T17:38:09.101Z,-0.80
2022-12-11T17:42:10.933Z,-0.80
2022-12-11T17:46:13.179Z,-0.80
2022-12-11T17:50:15.362Z,-0.80
2022-12-11T17:54:17.458Z,-0.70
2022-12-11T17:58:23.389Z,-0.70
2022-12-11T18:02:25.780Z,-0.70
2022-12-11T18:06:28.002Z,-0.60
2022-12-11T18:10:30.088Z,-0.60
2022-12-11T18:14:32.419Z,-0.50
2022-12-11T18:18:37.813Z,-0.60
2022-12-11T18:22:39.694Z,-0.60
2022-12-11T18:26:45.815Z,-0.60
2022-12-11T18:30:47.954Z,-0.60
2022-12-11T18:34:49.909Z,-0.60
2022-12-11T18:38:53.460Z,-0.60
2022-12-11T18:42:58.049Z,-0.70
2022-12-11T18:47:00.016Z,-0.80
2022-12-11T18:51:08.618Z,-0.70
2022-12-11T18:55:10.875Z,-0.70
2022-12-11T18:59:16.385Z,-0.70
2022-12-11T19:03:18.380Z,-0.60
2022-12-11T19:07:20.297Z,-0.60
2022-12-11T19:11:24.673Z,-0.60
2022-12-11T19:15:27.621Z,-0.70
2022-12-11T19:19:29.594Z,-0.70
2022-12-11T19:23:32.803Z,-0.70
2022-12-11T19:27:34.730Z,-0.70
2022-12-11T19:31:39.402Z,-0.70
2022-12-11T19:35:41.481Z,-0.70
2022-12-11T19:39:43.469Z,-0.70
2022-12-11T19:43:48.153Z,-0.70
2022-12-11T19:47:50.109Z,-0.60
2022-12-11T19:51:54.850Z,-0.60
2022-12-11T19:56:00.918Z,-0.80
2022-12-11T20:00:06.036Z,-0.90
2022-12-11T20:04:12.886Z,-0.80
2022-12-11T20:08:42.951Z,-0.70
2022-12-11T20:12:37.698Z,-0.80
2022-12-11T20:17:09.242Z,-0.80
2022-12-11T20:21:02.832Z,-0.80
2022-12-11T20:25:05.277Z,-0.70
2022-12-11T20:29:08.378Z,-0.70
2022-12-11T20:33:10.494Z,-0.70
2022-12-11T20:37:12.675Z,-0.70
2022-12-11T20:41:17.012Z,-0.70
2022-12-11T20:45:19.261Z,-0.70
2022-12-11T20:49:21.568Z,-0.80
2022-12-11T20:53:23.463Z,-0.80
2022-12-11T20:57:25.454Z,-0.90
2022-12-11T21:01:30.028Z,-0.80
2022-12-11T21:05:32.288Z,-0.70
2022-12-11T21:09:34.416Z,-0.80
2022-12-11T21:13:38.871Z,-0.80
2022-12-11T21:17:40.844Z,-0.80
2022-12-11T21:21:46.949Z,-0.80
2022-12-11T21:25:51.859Z,-0.70
2022-12-11T21:29:53.738Z,-0.60
2022-12-11T21:34:20.672Z,-0.60
2022-12-11T21:38:25.647Z,-0.60
2022-12-11T21:42:27.919Z,-0.60
2022-12-11T21:46:29.884Z,-0.60
2022-12-11T21:50:31.982Z,-0.70
2022-12-11T21:54:33.799Z,-0.60
2022-12-11T21:58:36.640Z,-0.60
2022-12-11T22:02:41.147Z,-0.60
2022-12-11T22:06:43.743Z,-0.80
2022-12-11T22:10:45.671Z,-0.70
2022-12-11T22:14:47.832Z,-0.70
2022-12-11T22:18:49.690Z,-0.80
2022-12-11T22:22:51.492Z,-0.80
2022-12-11T22:26:53.401Z,-0.80
2022-12-11T22:30:55.304Z,-0.80
2022-12-11T22:34:57.833Z,-0.80
2022-12-11T22:39:00.368Z,-0.70
2022-12-11T22:43:02.249Z,-0.70
2022-12-11T22:47:04.092Z,-0.70
2022-12-11T22:51:06.682Z,-0.80
2022-12-11T22:55:08.992Z,-0.90
2022-12-11T22:59:10.993Z,-0.80
2022-12-11T23:03:12.955Z,-0.90
2022-12-11T23:07:14.944Z,-0.80
2022-12-11T23:11:34.818Z,-0.80
2022-12-11T23:15:36.811Z,-0.80
2022-12-11T23:19:38.585Z,-0.70
2022-12-11T23:23:40.679Z,-0.80
2022-12-11T23:27:42.503Z,-0.80
2022-12-11T23:31:46.467Z,-0.80
2022-12-11T23:35:48.258Z,-0.80
2022-12-11T23:39:50.335Z,-0.70
2022-12-11T23:43:52.291Z,-0.70
2022-12-11T23:47:54.115Z,-0.80
2022-12-11T23:52:05.238Z,-0.70
2022-12-11T23:56:12.451Z,-0.70
